Time;durP1;ratioP1;P1;durP2;ratioP2;P2;SDS_P1;SDS_P2;PMS_P1;PMS_P2;Temp;Humidity;BMP_temperature;BMP_pressure;BME280_temperature;BME280_humidity;BME280_pressure;Samples;Min_cycle;Max_cycle;Signal;HPM_P1;HPM_P2
2022/08/01 00:00:28;;;;;;;1.50;1.40;;;21.50;99.90;;;;;;5114178;28;20547;-43
2022/08/01 00:02:53;;;;;;;1.88;1.65;;;21.40;99.90;;;;;;5132426;27;20171;-43
2022/08/01 00:05:19;;;;;;;2.13;1.70;;;21.30;99.90;;;;;;5132663;27;20171;-44
2022/08/01 00:07:45;;;;;;;2.42;1.70;;;21.40;99.90;;;;;;5132724;27;20163;-43
2022/08/01 00:10:14;;;;;;;3.28;1.80;;;21.30;99.90;;;;;;5132684;27;20179;-43
2022/08/01 00:12:41;;;;;;;5.10;1.90;;;21.30;99.90;;;;;;5132536;27;20223;-48
2022/08/01 00:15:10;;;;;;;2.60;1.95;;;21.30;99.90;;;;;;5114251;27;20168;-47
2022/08/01 00:17:36;;;;;;;4.50;1.85;;;21.30;99.90;;;;;;5132646;27;20157;-45
2022/08/01 00:20:03;;;;;;;2.80;1.95;;;21.30;99.90;;;;;;5132850;27;20203;-43
2022/08/01 00:22:31;;;;;;;2.65;1.95;;;21.20;99.90;;;;;;5132996;27;20195;-44
2022/08/01 00:24:57;;;;;;;2.85;1.90;;;21.20;99.90;;;;;;5132585;28;20615;-43
2022/08/01 00:27:22;;;;;;;5.55;2.28;;;21.10;99.90;;;;;;5132562;27;20197;-43
2022/08/01 00:29:48;;;;;;;2.33;1.75;;;21.20;99.90;;;;;;5132527;27;20657;-44
2022/08/01 00:32:13;;;;;;;3.53;1.95;;;21.10;99.90;;;;;;5132476;27;20171;-44
2022/08/01 00:34:39;;;;;;;4.85;1.92;;;21.20;99.90;;;;;;5132572;27;20648;-45
2022/08/01 00:37:04;;;;;;;3.70;1.98;;;21.10;99.90;;;;;;5132435;27;20168;-43
2022/08/01 00:39:32;;;;;;;2.42;2.08;;;21.10;99.90;;;;;;5132700;27;20699;-44
2022/08/01 00:41:58;;;;;;;2.13;1.85;;;21.10;99.90;;;;;;5132967;27;20168;-43
2022/08/01 00:44:23;;;;;;;2.60;2.25;;;21.00;99.90;;;;;;5132671;27;20193;-43
2022/08/01 00:46:49;;;;;;;2.20;2.00;;;21.00;99.90;;;;;;5132407;27;20526;-44
2022/08/01 00:49:15;;;;;;;2.20;1.77;;;21.00;99.90;;;;;;5132275;27;20243;-44
2022/08/01 00:51:40;;;;;;;2.25;2.05;;;21.00;99.90;;;;;;5134591;27;20176;-43
2022/08/01 00:54:06;;;;;;;4.28;2.30;;;21.00;99.90;;;;;;5136063;27;20702;-43
2022/08/01 00:56:32;;;;;;;2.28;2.10;;;21.00;99.90;;;;;;5136356;27;20167;-44
2022/08/01 00:58:58;;;;;;;3.63;2.15;;;20.90;99.90;;;;;;5136364;27;20244;-43
2022/08/01 01:01:24;;;;;;;3.63;2.55;;;21.00;99.90;;;;;;5135995;27;20522;-44
2022/08/01 01:03:51;;;;;;;2.13;1.92;;;20.90;99.90;;;;;;5135874;27;20649;-48
2022/08/01 01:06:41;;;;;;;3.67;2.00;;;20.90;99.90;;;;;;5136098;27;20179;-46
2022/08/01 01:09:44;;;;;;;2.63;1.90;;;20.80;99.90;;;;;;5136060;27;20176;-47
2022/08/01 01:12:28;;;;;;;2.70;2.20;;;20.90;99.90;;;;;;5135658;27;20218;-49
2022/08/01 01:15:18;;;;;;;3.13;2.20;;;20.80;99.90;;;;;;5135712;27;20168;-47
2022/08/01 01:17:53;;;;;;;3.38;2.47;;;20.90;99.90;;;;;;5135669;27;20190;-47
2022/08/01 01:20:23;;;;;;;3.33;2.03;;;20.80;99.90;;;;;;5135553;27;20220;-44
2022/08/01 01:23:10;;;;;;;4.60;2.78;;;20.80;99.90;;;;;;5135596;27;20171;-44
2022/08/01 01:26:09;;;;;;;2.55;2.35;;;20.70;99.90;;;;;;5135527;27;20228;-45
2022/08/01 01:28:59;;;;;;;3.38;2.20;;;20.80;99.90;;;;;;5135445;27;20168;-46
2022/08/01 01:31:27;;;;;;;2.30;2.10;;;20.80;99.90;;;;;;5135340;27;20239;-51
2022/08/01 01:33:55;;;;;;;4.20;2.28;;;20.70;99.90;;;;;;5135359;27;20168;-47
2022/08/01 01:36:24;;;;;;;4.72;2.50;;;20.60;99.90;;;;;;5135248;27;20250;-47
2022/08/01 01:38:52;;;;;;;4.03;2.70;;;20.60;99.90;;;;;;5135189;27;20184;-46
2022/08/01 01:41:18;;;;;;;3.63;2.78;;;20.60;99.90;;;;;;5135235;27;20229;-49
2022/08/01 01:43:46;;;;;;;5.10;2.95;;;20.70;99.90;;;;;;5135199;27;20255;-51
2022/08/01 01:46:17;;;;;;;2.60;2.40;;;20.60;99.90;;;;;;5135123;27;20525;-49
2022/08/01 01:48:44;;;;;;;4.97;2.67;;;20.50;99.90;;;;;;5135084;27;20168;-44
2022/08/01 01:51:11;;;;;;;2.72;2.22;;;20.50;99.90;;;;;;5135155;27;20247;-48
2022/08/01 01:53:39;;;;;;;2.10;1.90;;;20.60;99.90;;;;;;5134960;27;20647;-45
2022/08/01 01:56:05;;;;;;;2.42;1.95;;;20.50;99.90;;;;;;5134962;27;20591;-43
2022/08/01 01:58:36;;;;;;;2.25;2.05;;;20.60;99.90;;;;;;5135128;27;20191;-48
2022/08/01 02:01:03;;;;;;;2.25;1.83;;;20.50;99.90;;;;;;5135087;27;20203;-47
2022/08/01 02:03:30;;;;;;;2.30;2.10;;;20.60;99.90;;;;;;5134172;27;20164;-47
2022/08/01 02:05:57;;;;;;;2.47;2.00;;;20.50;99.90;;;;;;5134662;27;20172;-44
2022/08/01 02:08:24;;;;;;;2.45;2.10;;;20.50;99.90;;;;;;5134716;27;20190;-44
2022/08/01 02:13:38;;;;;;;2.58;2.38;;;20.60;99.90;;;;;;5134861;27;20175;-46
2022/08/01 02:16:06;;;;;;;2.83;2.35;;;20.60;99.90;;;;;;5116132;27;20530;-45
2022/08/01 02:18:32;;;;;;;2.30;2.03;;;20.50;99.90;;;;;;5134639;27;20198;-44
2022/08/01 02:21:00;;;;;;;5.00;2.35;;;20.50;99.90;;;;;;5134859;27;20164;-44
2022/08/01 02:23:32;;;;;;;2.35;2.10;;;20.50;99.90;;;;;;5134484;27;20156;-43
2022/08/01 02:26:00;;;;;;;2.70;2.20;;;20.60;99.90;;;;;;5134984;27;20534;-44
2022/08/01 02:28:34;;;;;;;3.00;2.08;;;20.50;99.90;;;;;;5134253;27;20171;-44
2022/08/01 02:31:03;;;;;;;3.08;2.03;;;20.50;99.90;;;;;;5134421;27;20175;-43
2022/08/01 02:33:37;;;;;;;4.32;2.45;;;20.50;99.90;;;;;;5134478;27;20496;-44
2022/08/01 02:36:05;;;;;;;2.42;2.00;;;20.40;99.90;;;;;;5134361;27;20164;-43
2022/08/01 02:38:34;;;;;;;3.15;2.00;;;20.40;99.90;;;;;;5134249;27;20160;-43
2022/08/01 02:41:08;;;;;;;6.22;2.33;;;20.50;99.90;;;;;;5115903;27;20179;-44
2022/08/01 02:43:37;;;;;;;2.38;2.17;;;20.40;99.90;;;;;;5133994;27;20164;-44
2022/08/01 02:46:05;;;;;;;2.28;1.90;;;20.50;99.90;;;;;;5133953;27;20572;-44
2022/08/01 02:48:35;;;;;;;2.35;2.15;;;20.40;99.90;;;;;;5134095;27;20156;-43
2022/08/01 02:51:01;;;;;;;4.63;2.30;;;20.40;99.90;;;;;;5134090;27;20228;-44
2022/08/01 02:53:31;;;;;;;2.55;2.13;;;20.40;99.90;;;;;;5134035;27;20156;-43
2022/08/01 02:55:59;;;;;;;2.10;1.90;;;20.30;99.90;;;;;;5134172;27;20160;-46
2022/08/01 02:58:25;;;;;;;2.60;2.10;;;20.30;99.90;;;;;;5133520;27;20167;-45
2022/08/01 03:00:52;;;;;;;2.60;2.28;;;20.40;99.90;;;;;;5133616;27;20270;-43
2022/08/01 03:03:18;;;;;;;2.55;2.17;;;20.30;99.90;;;;;;5133582;27;20160;-47
2022/08/01 03:05:45;;;;;;;2.83;2.30;;;20.40;99.90;;;;;;5133863;27;20255;-44
2022/08/01 03:08:13;;;;;;;2.67;2.45;;;20.30;99.90;;;;;;5133584;27;20179;-45
2022/08/01 03:10:41;;;;;;;3.08;2.25;;;20.30;99.90;;;;;;5133708;27;20197;-44
2022/08/01 03:13:09;;;;;;;4.93;2.20;;;20.30;99.90;;;;;;5114951;27;20581;-43
2022/08/01 03:15:40;;;;;;;4.25;2.67;;;20.30;99.90;;;;;;5133565;27;20180;-43
2022/08/01 03:18:09;;;;;;;4.18;2.50;;;20.40;99.90;;;;;;5133345;27;20642;-45
2022/08/01 03:20:35;;;;;;;2.42;2.22;;;20.40;99.90;;;;;;5133243;27;20674;-42
2022/08/01 03:23:05;;;;;;;3.58;2.42;;;20.30;99.90;;;;;;5133608;27;20163;-42
2022/08/01 03:25:32;;;;;;;3.65;2.53;;;20.20;99.90;;;;;;5133753;27;20217;-42
2022/08/01 03:28:01;;;;;;;4.00;2.55;;;20.30;99.90;;;;;;5133488;27;20530;-42
2022/08/01 03:30:29;;;;;;;4.72;2.70;;;20.30;99.90;;;;;;5133660;27;20233;-42
2022/08/01 03:32:56;;;;;;;2.70;2.50;;;20.30;99.90;;;;;;5133378;27;20573;-42
2022/08/01 03:35:25;;;;;;;3.13;2.72;;;20.40;99.90;;;;;;5133349;27;20168;-42
2022/08/01 03:37:54;;;;;;;3.35;2.20;;;20.40;99.90;;;;;;5133036;27;20175;-42
2022/08/01 03:40:39;;;;;;;2.60;2.40;;;20.40;99.90;;;;;;5133242;27;20207;-45
2022/08/01 03:43:11;;;;;;;2.42;2.15;;;20.40;99.90;;;;;;5132958;27;20208;-44
2022/08/01 03:45:40;;;;;;;3.75;2.90;;;20.40;99.90;;;;;;5133134;27;20168;-42
2022/08/01 03:48:11;;;;;;;4.38;3.08;;;20.40;99.90;;;;;;5132395;27;20168;-42
2022/08/01 03:50:41;;;;;;;3.50;2.88;;;20.50;99.90;;;;;;5132892;27;20530;-42
2022/08/01 03:53:09;;;;;;;2.95;2.58;;;20.40;99.90;;;;;;5133123;27;20258;-42
2022/08/01 03:55:37;;;;;;;4.72;3.33;;;20.50;99.90;;;;;;5132778;27;20178;-43
2022/08/01 03:58:03;;;;;;;4.60;3.40;;;20.50;99.90;;;;;;5114376;28;20217;-41
2022/08/01 04:00:30;;;;;;;3.85;3.45;;;20.40;99.90;;;;;;5133010;28;20674;-42
2022/08/01 04:02:55;;;;;;;4.20;3.70;;;20.50;99.90;;;;;;5132269;28;20164;-42
2022/08/01 04:05:21;;;;;;;3.45;3.15;;;20.50;99.90;;;;;;5132623;27;20171;-43
2022/08/01 04:07:55;;;;;;;4.82;3.10;;;20.40;99.90;;;;;;5132765;28;20164;-42
2022/08/01 04:10:21;;;;;;;3.83;3.40;;;20.50;99.90;;;;;;5132901;27;20178;-43
2022/08/01 04:12:47;;;;;;;4.85;3.67;;;20.50;99.90;;;;;;5132483;27;20322;-45
2022/08/01 04:15:13;;;;;;;4.05;3.42;;;20.50;99.90;;;;;;5132593;27;20643;-46
2022/08/01 04:17:39;;;;;;;4.88;4.32;;;20.50;99.90;;;;;;5132621;27;20707;-43
2022/08/01 04:20:05;;;;;;;5.85;4.53;;;20.50;99.90;;;;;;5132511;27;20207;-43
2022/08/01 04:22:31;;;;;;;5.82;4.50;;;20.60;99.90;;;;;;5132577;27;20171;-43
2022/08/01 04:24:58;;;;;;;6.32;4.38;;;20.50;99.90;;;;;;5132993;27;20168;-43
2022/08/01 04:27:29;;;;;;;5.57;4.25;;;20.60;99.90;;;;;;5135885;27;20224;-42
2022/08/01 04:29:58;;;;;;;5.55;4.68;;;20.50;99.90;;;;;;5136495;27;20191;-42
2022/08/01 04:32:27;;;;;;;8.32;4.93;;;20.70;99.90;;;;;;5136704;27;20201;-45
2022/08/01 04:34:55;;;;;;;6.68;5.90;;;20.50;99.90;;;;;;5136433;27;20193;-45
2022/08/01 04:37:23;;;;;;;7.32;6.60;;;20.60;99.90;;;;;;5136389;27;20186;-43
2022/08/01 04:39:52;;;;;;;9.85;6.53;;;20.70;99.90;;;;;;5136238;27;20248;-43
2022/08/01 04:42:18;;;;;;;8.73;6.18;;;20.60;99.90;;;;;;5117857;27;20164;-45
2022/08/01 04:44:44;;;;;;;8.50;6.20;;;20.70;99.90;;;;;;5136256;27;20234;-46
2022/08/01 04:47:11;;;;;;;7.97;6.82;;;20.70;99.90;;;;;;5136249;27;20164;-45
2022/08/01 04:49:37;;;;;;;6.43;5.70;;;20.70;99.90;;;;;;5135969;27;20179;-42
2022/08/01 04:52:03;;;;;;;7.57;5.13;;;20.70;99.90;;;;;;5136105;27;20168;-42
2022/08/01 04:54:37;;;;;;;6.32;4.60;;;20.70;99.90;;;;;;5136749;27;20237;-44
2022/08/01 04:57:06;;;;;;;7.68;5.20;;;20.70;99.90;;;;;;5136024;27;20178;-43
2022/08/01 04:59:40;;;;;;;7.60;5.22;;;20.70;99.90;;;;;;5135993;27;20277;-43
2022/08/01 05:02:10;;;;;;;6.95;6.25;;;20.60;99.90;;;;;;5136227;27;20171;-43
2022/08/01 05:04:37;;;;;;;8.85;5.97;;;20.60;99.90;;;;;;5135987;27;20536;-45
2022/08/01 05:07:04;;;;;;;8.05;5.07;;;20.60;99.90;;;;;;5136117;27;20168;-45
2022/08/01 05:09:30;;;;;;;8.93;5.65;;;20.60;99.90;;;;;;5136363;27;20572;-44
2022/08/01 05:11:58;;;;;;;6.07;5.22;;;20.60;99.90;;;;;;5136035;27;20289;-45
2022/08/01 05:14:25;;;;;;;10.07;6.07;;;20.70;99.90;;;;;;5135732;27;20160;-43
2022/08/01 05:16:51;;;;;;;10.65;7.07;;;20.70;99.90;;;;;;5117163;27;20195;-50
2022/08/01 05:19:16;;;;;;;10.70;6.70;;;20.70;99.90;;;;;;5135543;27;20199;-46
2022/08/01 05:21:42;;;;;;;10.07;7.10;;;20.70;99.90;;;;;;5135585;27;20199;-43
2022/08/01 05:24:08;;;;;;;9.40;6.13;;;20.60;99.90;;;;;;5135528;27;20160;-47
2022/08/01 05:26:33;;;;;;;10.10;7.10;;;20.80;99.90;;;;;;5135471;27;20243;-43
2022/08/01 05:29:00;;;;;;;7.75;7.03;;;20.70;99.90;;;;;;5135809;27;20184;-44
2022/08/01 05:31:25;;;;;;;9.65;6.47;;;20.80;99.90;;;;;;5117510;27;20213;-44
2022/08/01 05:33:51;;;;;;;10.30;6.85;;;20.80;99.90;;;;;;5135263;27;20156;-44
2022/08/01 05:36:16;;;;;;;11.20;7.13;;;20.80;99.90;;;;;;5135211;27;20231;-44
2022/08/01 05:38:42;;;;;;;8.73;6.75;;;20.80;99.90;;;;;;5133788;27;20160;-43
2022/08/01 05:41:08;;;;;;;11.10;7.20;;;20.80;99.90;;;;;;5135002;27;20691;-43
2022/08/01 05:43:33;;;;;;;10.63;7.53;;;20.90;99.90;;;;;;5135069;27;20160;-42
2022/08/01 05:45:59;;;;;;;11.98;7.60;;;21.00;99.90;;;;;;5135535;27;20175;-45
2022/08/01 05:48:25;;;;;;;11.02;7.25;;;20.90;99.90;;;;;;5135632;27;20654;-42
2022/08/01 05:50:51;;;;;;;12.35;7.25;;;21.00;99.90;;;;;;5134973;27;20519;-43
2022/08/01 05:53:16;;;;;;;8.65;7.13;;;21.10;99.90;;;;;;5134814;27;20168;-42
2022/08/01 05:55:42;;;;;;;9.02;7.53;;;21.10;99.90;;;;;;5134802;27;20168;-49
2022/08/01 05:58:07;;;;;;;10.25;7.82;;;21.10;99.90;;;;;;5135081;27;20182;-48
2022/08/01 06:00:33;;;;;;;8.75;6.88;;;21.20;99.90;;;;;;5134644;27;20286;-44
2022/08/01 06:02:59;;;;;;;11.18;7.68;;;21.20;99.90;;;;;;5135131;27;20171;-51
2022/08/01 06:05:24;;;;;;;10.07;6.95;;;21.10;99.90;;;;;;5134637;27;20159;-49
2022/08/01 06:07:50;;;;;;;9.18;6.97;;;21.10;99.90;;;;;;5134569;27;20170;-48
2022/08/01 06:10:15;;;;;;;8.23;6.00;;;21.30;99.90;;;;;;5134529;27;20172;-44
2022/08/01 06:12:41;;;;;;;9.38;6.93;;;21.40;99.90;;;;;;5134405;27;20713;-44
2022/08/01 06:15:07;;;;;;;7.07;6.30;;;21.50;99.90;;;;;;5134678;27;20172;-43
2022/08/01 06:17:33;;;;;;;8.30;6.38;;;21.50;99.90;;;;;;5134433;27;20246;-45
2022/08/01 06:19:59;;;;;;;8.23;7.00;;;21.50;99.90;;;;;;5134710;27;20211;-49
2022/08/01 06:22:25;;;;;;;9.90;7.00;;;21.60;99.90;;;;;;5134865;27;20160;-46
2022/08/01 06:24:51;;;;;;;11.40;8.77;;;21.50;99.90;;;;;;5134300;27;20529;-47
2022/08/01 06:27:17;;;;;;;11.50;8.10;;;21.60;99.90;;;;;;5134136;27;20183;-49
2022/08/01 06:29:43;;;;;;;9.77;8.20;;;21.70;99.90;;;;;;5134207;27;20247;-46
2022/08/01 06:32:09;;;;;;;8.63;7.55;;;21.70;99.90;;;;;;5134175;27;20192;-43
2022/08/01 06:34:35;;;;;;;12.13;8.35;;;21.70;99.90;;;;;;5134224;27;20202;-43
2022/08/01 06:37:01;;;;;;;9.88;7.82;;;21.60;99.90;;;;;;5134263;27;20184;-43
2022/08/01 06:39:26;;;;;;;12.55;9.05;;;21.60;99.90;;;;;;5134341;27;20702;-43
2022/08/01 06:41:52;;;;;;;11.10;8.02;;;21.60;99.90;;;;;;5134006;27;20156;-43
2022/08/01 06:44:18;;;;;;;11.32;8.38;;;21.70;99.90;;;;;;5133833;27;20168;-42
2022/08/01 06:46:43;;;;;;;11.18;8.10;;;21.70;99.90;;;;;;5133940;27;20164;-44
2022/08/01 06:49:09;;;;;;;11.35;8.48;;;21.70;99.90;;;;;;5133502;27;20164;-43
2022/08/01 06:51:35;;;;;;;10.20;8.55;;;21.70;99.90;;;;;;5133778;27;20165;-43
2022/08/01 06:54:00;;;;;;;9.60;7.90;;;21.70;99.90;;;;;;5133750;27;20246;-43
2022/08/01 06:56:26;;;;;;;9.50;8.00;;;21.70;99.90;;;;;;5134024;27;20166;-44
2022/08/01 06:58:52;;;;;;;8.93;8.02;;;21.70;99.90;;;;;;5133527;27;20160;-42
2022/08/01 07:01:17;;;;;;;12.32;9.35;;;21.70;99.90;;;;;;5133577;27;20569;-42
2022/08/01 07:03:43;;;;;;;12.00;8.80;;;21.70;99.90;;;;;;5133582;27;20160;-49
2022/08/01 07:06:09;;;;;;;12.57;8.95;;;21.60;99.90;;;;;;5133561;27;20286;-46
2022/08/01 07:08:35;;;;;;;8.77;7.88;;;21.70;99.90;;;;;;5133488;27;20160;-43
2022/08/01 07:11:01;;;;;;;10.50;7.85;;;21.70;99.90;;;;;;5133289;27;20160;-43
2022/08/01 07:13:27;;;;;;;12.15;8.32;;;21.80;99.90;;;;;;5133611;27;20167;-43
2022/08/01 07:15:53;;;;;;;10.02;8.25;;;21.70;99.90;;;;;;5133296;27;20168;-48
2022/08/01 07:18:19;;;;;;;9.88;8.88;;;21.90;99.90;;;;;;5133482;27;20645;-44
2022/08/01 07:20:47;;;;;;;10.63;8.00;;;21.90;99.90;;;;;;5133252;27;20208;-43
2022/08/01 07:23:13;;;;;;;9.98;8.98;;;22.00;99.90;;;;;;5133259;27;20548;-43
2022/08/01 07:25:38;;;;;;;9.75;8.57;;;22.10;99.90;;;;;;5133509;27;20179;-43
2022/08/01 07:28:04;;;;;;;11.23;8.80;;;22.00;99.90;;;;;;5133119;27;20616;-44
2022/08/01 07:30:30;;;;;;;8.95;8.05;;;22.00;99.90;;;;;;5114720;27;20221;-44
2022/08/01 07:32:55;;;;;;;8.82;7.47;;;22.00;99.90;;;;;;5133403;27;20168;-44
2022/08/01 07:35:21;;;;;;;10.15;8.10;;;22.20;99.90;;;;;;5132965;27;20168;-44
2022/08/01 07:37:47;;;;;;;8.93;8.07;;;22.30;99.90;;;;;;5133298;27;20248;-54
2022/08/01 07:40:12;;;;;;;9.65;7.85;;;22.30;99.90;;;;;;5114549;28;20231;-44
2022/08/01 07:42:38;;;;;;;12.35;8.20;;;22.30;99.90;;;;;;5133025;27;20212;-46
2022/08/01 07:45:04;;;;;;;9.80;8.48;;;22.40;99.90;;;;;;5132955;27;20247;-49
2022/08/01 07:47:29;;;;;;;11.48;8.43;;;22.60;99.90;;;;;;5133025;27;20168;-44
2022/08/01 07:50:03;;;;;;;9.07;7.90;;;22.60;99.90;;;;;;5133257;27;20175;-44
2022/08/01 07:52:30;;;;;;;8.93;7.57;;;22.60;99.90;;;;;;5133117;27;20191;-44
2022/08/01 07:54:56;;;;;;;8.98;7.63;;;22.70;99.90;;;;;;5133406;27;20178;-44
2022/08/01 07:57:22;;;;;;;9.65;7.78;;;22.80;99.90;;;;;;5133063;27;20170;-44
2022/08/01 07:59:48;;;;;;;7.75;6.95;;;22.90;99.90;;;;;;5132899;27;20565;-47
2022/08/01 08:02:14;;;;;;;9.02;7.40;;;23.10;99.90;;;;;;5136062;27;20251;-43
2022/08/01 08:04:39;;;;;;;7.18;6.57;;;23.30;99.90;;;;;;5137290;27;20160;-44
2022/08/01 08:07:05;;;;;;;7.35;6.22;;;23.30;99.90;;;;;;5136961;27;20160;-44
2022/08/01 08:09:30;;;;;;;6.22;5.63;;;23.20;99.90;;;;;;5136942;27;20258;-43
2022/08/01 08:11:56;;;;;;;7.32;5.68;;;23.30;99.90;;;;;;5137060;27;20215;-44
2022/08/01 08:14:22;;;;;;;6.95;6.00;;;23.30;99.90;;;;;;5137135;27;20179;-44
2022/08/01 08:16:48;;;;;;;10.82;5.90;;;23.40;99.90;;;;;;5136623;27;20255;-44
2022/08/01 08:19:13;;;;;;;7.03;6.30;;;23.50;99.90;;;;;;5136732;27;20274;-44
2022/08/01 08:21:40;;;;;;;9.27;7.20;;;23.30;99.90;;;;;;5136735;27;20577;-45
2022/08/01 08:24:19;;;;;;;6.75;5.90;;;24.60;99.90;;;;;;5136729;27;20217;-44
2022/08/01 08:26:45;;;;;;;7.43;5.90;;;23.40;99.90;;;;;;5136628;27;20195;-44
2022/08/01 08:29:11;;;;;;;7.22;6.60;;;23.30;99.90;;;;;;5136591;27;20197;-44
2022/08/01 08:31:37;;;;;;;6.85;6.15;;;23.40;99.90;;;;;;5136543;27;20172;-44
2022/08/01 08:34:03;;;;;;;8.55;6.78;;;23.40;99.90;;;;;;5136490;27;20172;-43
2022/08/01 08:36:29;;;;;;;7.40;5.53;;;23.30;99.90;;;;;;5136793;27;20164;-44
2022/08/01 08:38:54;;;;;;;6.15;5.35;;;23.40;99.90;;;;;;5136318;27;20198;-43
2022/08/01 08:41:21;;;;;;;7.05;5.20;;;23.20;99.90;;;;;;5136566;27;20175;-48
2022/08/01 08:43:47;;;;;;;6.32;5.57;;;23.30;99.90;;;;;;5136485;27;20309;-43
2022/08/01 08:46:14;;;;;;;5.60;4.40;;;23.50;99.90;;;;;;5136354;27;20650;-47
2022/08/01 08:48:40;;;;;;;6.60;4.55;;;23.70;99.90;;;;;;5136167;27;20171;-44
2022/08/01 08:51:08;;;;;;;6.82;5.03;;;23.70;99.90;;;;;;5136237;27;20167;-43
2022/08/01 08:53:35;;;;;;;5.43;4.93;;;23.70;99.90;;;;;;5136076;27;20635;-53
2022/08/01 08:56:02;;;;;;;4.95;4.38;;;23.50;99.90;;;;;;5136088;27;20218;-57
2022/08/01 08:58:28;;;;;;;7.07;5.10;;;23.50;99.90;;;;;;5136368;27;20178;-54
2022/08/01 09:00:54;;;;;;;7.30;5.72;;;23.60;99.90;;;;;;5135908;27;20211;-56
2022/08/01 09:03:20;;;;;;;6.00;5.07;;;23.70;99.90;;;;;;5136209;27;20171;-48
2022/08/01 09:05:46;;;;;;;7.63;5.80;;;23.70;99.90;;;;;;5135972;27;20160;-54
2022/08/01 09:08:12;;;;;;;6.00;5.13;;;23.90;99.90;;;;;;5135884;27;20164;-49
2022/08/01 09:10:38;;;;;;;8.55;5.93;;;23.80;99.90;;;;;;5135839;27;20647;-48
2022/08/01 09:13:10;;;;;;;8.57;5.72;;;23.70;99.90;;;;;;5135376;27;20234;-50
2022/08/01 09:15:44;;;;;;;7.50;6.28;;;23.60;99.90;;;;;;5135677;27;20174;-52
2022/08/01 09:18:36;;;;;;;7.18;5.70;;;23.80;99.90;;;;;;5135963;27;20522;-48
2022/08/01 09:21:10;;;;;;;6.60;5.63;;;24.10;99.90;;;;;;5135784;27;20203;-44
2022/08/01 09:23:39;;;;;;;5.50;5.00;;;24.20;99.90;;;;;;5135609;27;20160;-52
2022/08/01 09:26:06;;;;;;;6.45;5.40;;;24.20;99.90;;;;;;5135597;27;20166;-43
2022/08/01 09:28:32;;;;;;;7.35;5.55;;;24.30;99.90;;;;;;5135417;27;20714;-43
2022/08/01 09:30:59;;;;;;;5.95;5.03;;;24.60;99.90;;;;;;5135742;27;20246;-43
2022/08/01 09:33:25;;;;;;;7.03;5.30;;;25.10;99.90;;;;;;5135800;27;20163;-44
2022/08/01 09:35:56;;;;;;;8.15;5.80;;;25.30;99.90;;;;;;5135528;27;20171;-43
2022/08/01 09:38:26;;;;;;;7.70;4.70;;;25.50;99.90;;;;;;5135338;27;20522;-43
2022/08/01 09:41:00;;;;;;;5.35;4.47;;;25.70;99.90;;;;;;5135379;27;20218;-44
2022/08/01 09:43:28;;;;;;;4.65;4.15;;;25.60;99.90;;;;;;5135479;27;20235;-44
2022/08/01 09:45:55;;;;;;;5.38;4.20;;;25.40;99.90;;;;;;5135395;27;20235;-44
2022/08/01 09:48:22;;;;;;;5.68;4.90;;;25.30;99.90;;;;;;5135328;27;20167;-43
2022/08/01 09:50:51;;;;;;;6.30;4.93;;;25.30;99.90;;;;;;5135270;27;20186;-43
2022/08/01 09:53:17;;;;;;;10.30;4.90;;;25.40;99.90;;;;;;5135028;27;20184;-44
2022/08/01 09:55:44;;;;;;;5.50;4.18;;;25.50;99.90;;;;;;5134869;27;20160;-44
2022/08/01 09:58:11;;;;;;;6.60;4.45;;;25.70;99.90;;;;;;5134852;27;20159;-44
2022/08/01 10:00:38;;;;;;;4.78;4.10;;;25.70;99.90;;;;;;5135013;27;20225;-43
2022/08/01 10:03:25;;;;;;;4.47;4.07;;;26.00;99.90;;;;;;5134777;27;20198;-47
2022/08/01 10:05:53;;;;;;;4.00;3.65;;;26.30;99.90;;;;;;5134710;27;20175;-46
2022/08/01 10:08:19;;;;;;;4.32;3.72;;;26.40;99.90;;;;;;5134916;27;20171;-43
2022/08/01 10:11:08;;;;;;;4.43;4.03;;;26.10;99.90;;;;;;5134631;27;20250;-44
2022/08/01 10:13:34;;;;;;;4.78;4.18;;;26.00;99.90;;;;;;5121497;27;20241;-44
2022/08/01 10:16:01;;;;;;;7.22;4.32;;;25.80;99.90;;;;;;5134724;27;20246;-44
2022/08/01 10:18:31;;;;;;;6.32;4.10;;;25.90;99.90;;;;;;5134773;27;20195;-44
2022/08/01 10:20:57;;;;;;;4.43;4.00;;;26.10;99.90;;;;;;5134911;27;20211;-44
2022/08/01 10:23:25;;;;;;;4.47;4.07;;;26.40;99.90;;;;;;5133645;27;20164;-44
2022/08/01 10:25:54;;;;;;;4.78;4.32;;;26.80;99.90;;;;;;5134531;27;20171;-42
2022/08/01 10:28:22;;;;;;;7.22;3.50;;;26.70;99.90;;;;;;5134172;27;20155;-42
2022/08/01 10:30:48;;;;;;;4.03;3.40;;;26.30;99.90;;;;;;5134194;27;20163;-43
2022/08/01 10:33:15;;;;;;;4.70;4.10;;;26.50;99.90;;;;;;5134163;27;20556;-44
2022/08/01 10:35:41;;;;;;;4.63;4.22;;;26.70;99.90;;;;;;5134143;27;20175;-44
2022/08/01 10:38:07;;;;;;;3.90;3.60;;;26.90;99.90;;;;;;5134136;27;20170;-43
2022/08/01 10:40:35;;;;;;;4.07;3.67;;;26.30;99.90;;;;;;5133947;27;20210;-44
2022/08/01 10:43:01;;;;;;;4.88;3.90;;;25.90;99.90;;;;;;5133958;27;20166;-43
2022/08/01 10:45:28;;;;;;;5.32;3.60;;;25.80;99.90;;;;;;5134590;27;20171;-43
2022/08/01 10:48:27;;;;;;;4.32;3.92;;;25.80;99.90;;;;;;5133929;27;20239;-44
2022/08/01 10:50:56;;;;;;;6.55;4.28;;;25.60;99.90;;;;;;5133639;27;20164;-43
2022/08/01 10:53:23;;;;;;;5.82;3.92;;;25.70;99.90;;;;;;5133511;27;20163;-44
2022/08/01 10:55:56;;;;;;;3.63;3.30;;;25.60;99.90;;;;;;5133853;27;20575;-44
2022/08/01 10:58:25;;;;;;;3.35;3.05;;;25.70;99.90;;;;;;5133348;27;20186;-44
2022/08/01 11:01:29;;;;;;;3.35;3.05;;;25.70;99.90;;;;;;5133344;27;20203;-44
2022/08/01 11:04:00;;;;;;;3.28;2.97;;;26.10;99.90;;;;;;5133957;27;20171;-43
2022/08/01 11:06:38;;;;;;;3.40;3.00;;;26.20;99.90;;;;;;5133890;27;20492;-44
2022/08/01 11:09:15;;;;;;;3.25;2.85;;;26.70;99.90;;;;;;5133573;27;20163;-48
2022/08/01 11:11:58;;;;;;;2.85;2.65;;;26.50;99.90;;;;;;5133279;27;20214;-44
2022/08/01 11:14:23;;;;;;;3.50;2.88;;;26.90;99.90;;;;;;5133556;27;20171;-45
2022/08/01 11:16:49;;;;;;;5.32;2.90;;;27.40;99.90;;;;;;5133007;27;20698;-44
2022/08/01 11:19:14;;;;;;;4.35;3.28;;;27.40;99.90;;;;;;5133120;27;20316;-46
2022/08/01 11:21:52;;;;;;;3.25;2.97;;;27.40;99.90;;;;;;5132919;27;20171;-43
2022/08/01 11:24:47;;;;;;;6.50;3.17;;;27.30;99.90;;;;;;5133067;27;20160;-44
2022/08/01 11:27:30;;;;;;;3.00;2.70;;;27.50;99.90;;;;;;5124179;27;20743;-44
2022/08/01 11:30:11;;;;;;;4.78;3.15;;;27.20;99.90;;;;;;5133515;27;20263;-44
2022/08/01 11:32:49;;;;;;;7.50;3.17;;;27.10;99.90;;;;;;5133631;27;20239;-43
2022/08/01 11:35:16;;;;;;;25.10;5.05;;;27.30;99.90;;;;;;5133093;27;20204;-48
2022/08/01 11:37:42;;;;;;;4.47;3.13;;;27.00;99.90;;;;;;5133087;27;20212;-44
2022/08/01 11:40:28;;;;;;;3.15;2.85;;;26.90;99.90;;;;;;5132974;27;20215;-43
2022/08/01 11:43:16;;;;;;;3.50;3.15;;;26.60;99.90;;;;;;5133097;27;20634;-44
2022/08/01 11:45:57;;;;;;;3.33;3.03;;;26.40;99.90;;;;;;5132966;27;20691;-44
2022/08/01 11:48:24;;;;;;;3.22;2.35;;;26.20;99.90;;;;;;5132842;27;20178;-44
2022/08/01 11:50:59;;;;;;;3.03;2.78;;;26.10;99.90;;;;;;5132936;27;20201;-43
2022/08/01 11:53:25;;;;;;;4.10;3.70;;;26.10;99.90;;;;;;5133187;27;20203;-43
2022/08/01 11:55:53;;;;;;;4.50;3.25;;;26.10;99.90;;;;;;5132896;27;20262;-43
2022/08/01 11:58:24;;;;;;;5.88;3.78;;;26.00;99.90;;;;;;5132831;28;20208;-48
2022/08/01 12:00:54;;;;;;;5.75;3.33;;;26.10;99.90;;;;;;5132985;27;20282;-43
2022/08/01 12:03:28;;;;;;;4.00;3.38;;;26.40;99.90;;;;;;5132775;27;20164;-47
2022/08/01 12:05:55;;;;;;;5.55;3.22;;;26.80;99.90;;;;;;5132699;28;20163;-43
2022/08/01 12:08:36;;;;;;;3.67;3.35;;;27.30;99.90;;;;;;5132714;27;20198;-44
2022/08/01 12:11:04;;;;;;;3.92;3.10;;;27.30;99.90;;;;;;5132464;27;20307;-44
2022/08/01 12:13:43;;;;;;;2.42;2.22;;;27.70;99.90;;;;;;5132833;27;20182;-43
2022/08/01 12:16:09;;;;;;;4.20;3.35;;;27.80;99.90;;;;;;5132926;28;20187;-61
2022/08/01 12:18:42;;;;;;;3.47;2.60;;;27.90;99.90;;;;;;5132262;27;20171;-44
2022/08/01 12:21:07;;;;;;;3.08;2.67;;;27.60;99.90;;;;;;5132645;27;20251;-43
2022/08/01 12:23:33;;;;;;;7.13;2.33;;;27.40;99.90;;;;;;5132439;27;20163;-43
2022/08/01 12:26:00;;;;;;;2.97;2.22;;;27.40;99.90;;;;;;5132570;27;20199;-43
2022/08/01 12:28:25;;;;;;;3.80;2.17;;;27.60;99.90;;;;;;5132124;28;20172;-42
2022/08/01 12:30:51;;;;;;;1.90;1.80;;;27.60;99.90;;;;;;5131891;28;20170;-43
2022/08/01 12:33:19;;;;;;;2.05;1.85;;;27.40;99.90;;;;;;5132015;27;20224;-44
2022/08/01 12:35:45;;;;;;;2.92;2.00;;;27.40;99.90;;;;;;5132607;27;20171;-44
2022/08/01 12:38:16;;;;;;;2.63;1.70;;;27.30;99.90;;;;;;5132423;27;20170;-43
2022/08/01 12:40:44;;;;;;;3.50;1.90;;;27.10;99.90;;;;;;5131627;27;20670;-43
2022/08/01 12:43:09;;;;;;;3.63;1.83;;;27.40;99.90;;;;;;5131907;28;20196;-43
2022/08/01 12:45:40;;;;;;;1.40;1.30;;;27.60;99.90;;;;;;5132076;27;20160;-62
2022/08/01 12:48:11;;;;;;;1.40;1.30;;;28.00;99.90;;;;;;5134888;27;20207;-43
2022/08/01 12:50:38;;;;;;;1.83;1.70;;;28.20;99.90;;;;;;5135888;27;20163;-43
2022/08/01 12:53:04;;;;;;;1.48;1.38;;;28.40;99.90;;;;;;5136028;27;20198;-43
2022/08/01 12:55:31;;;;;;;1.90;1.60;;;28.40;99.90;;;;;;5135910;27;20175;-44